createdAt,value
2022-10-19T00:00:26.353Z,79.97
2022-10-19T00:01:26.331Z,80.17
2022-10-19T00:02:26.464Z,80.37
2022-10-19T00:03:26.321Z,80.27
2022-10-19T00:04:26.338Z,80.07
2022-10-19T00:05:26.293Z,80.47
2022-10-19T00:06:26.478Z,80.37
2022-10-19T00:07:26.276Z,80.68
2022-10-19T00:08:26.266Z,80.27
2022-10-19T00:09:26.349Z,79.46
2022-10-19T00:10:26.237Z,80.17
2022-10-19T00:11:26.255Z,80.27
2022-10-19T00:12:26.217Z,80.47
2022-10-19T00:13:26.206Z,79.97
2022-10-19T00:14:26.192Z,80.07
2022-10-19T00:15:26.217Z,79.77
2022-10-19T00:16:26.211Z,79.56
2022-10-19T00:17:26.166Z,80.27
2022-10-19T00:18:26.166Z,79.86
2022-10-19T00:19:26.137Z,80.37
2022-10-19T00:20:26.130Z,81.29
2022-10-19T00:21:26.127Z,80.17
2022-10-19T00:22:26.139Z,80.07
2022-10-19T00:23:26.106Z,80.07
2022-10-19T00:24:26.100Z,79.22
2022-10-19T00:25:26.083Z,79.36
2022-10-19T00:26:26.062Z,79.46
2022-10-19T00:27:26.078Z,79.39
2022-10-19T00:28:26.084Z,80.11
2022-10-19T00:29:26.035Z,79.90
2022-10-19T00:30:26.025Z,80.21
2022-10-19T00:31:26.026Z,79.50
2022-10-19T00:32:26.010Z,79.29
2022-10-19T00:33:25.986Z,79.29
2022-10-19T00:34:25.974Z,79.74
2022-10-19T00:35:25.971Z,79.33
2022-10-19T00:36:25.962Z,80.24
2022-10-19T00:37:25.963Z,80.31
2022-10-19T00:38:25.938Z,79.33
2022-10-19T00:39:25.934Z,79.43
2022-10-19T00:40:25.918Z,79.84
2022-10-19T00:41:25.906Z,79.13
2022-10-19T00:42:25.920Z,80.24
2022-10-19T00:43:25.902Z,79.94
2022-10-19T00:44:25.875Z,80.35
2022-10-19T00:45:25.860Z,80.15
2022-10-19T00:46:25.847Z,80.00
2022-10-19T00:47:25.941Z,79.74
2022-10-19T00:48:25.841Z,79.84
2022-10-19T00:49:25.814Z,80.55
2022-10-19T00:50:25.818Z,80.24
2022-10-19T00:51:25.823Z,80.35
2022-10-19T00:52:25.790Z,80.04
2022-10-19T00:53:25.778Z,80.24
2022-10-19T00:54:25.756Z,81.06
2022-10-19T00:55:25.754Z,80.76
2022-10-19T00:56:25.746Z,81.23
2022-10-19T00:57:25.796Z,81.33
2022-10-19T00:58:25.720Z,81.02
2022-10-19T00:59:25.718Z,80.92
2022-10-19T01:00:25.702Z,80.41
2022-10-19T01:01:25.735Z,81.02
2022-10-19T01:02:25.698Z,80.21
2022-10-19T01:03:25.669Z,80.17
2022-10-19T01:04:25.651Z,80.62
2022-10-19T01:05:25.640Z,80.21
2022-10-19T01:06:25.634Z,80.51
2022-10-19T01:07:25.688Z,80.17
2022-10-19T01:08:25.607Z,80.11
2022-10-19T01:09:25.610Z,80.21
2022-10-19T01:10:25.596Z,80.17
2022-10-19T01:11:25.574Z,79.80
2022-10-19T01:12:25.570Z,79.86
2022-10-19T01:13:25.622Z,79.97
2022-10-19T01:14:25.543Z,80.31
2022-10-19T01:15:25.559Z,80.27
2022-10-19T01:16:25.537Z,79.97
2022-10-19T01:17:25.594Z,80.27
2022-10-19T01:18:25.520Z,80.27
2022-10-19T01:19:25.489Z,79.46
2022-10-19T01:20:25.478Z,79.46
2022-10-19T01:21:25.475Z,78.34
2022-10-19T01:22:25.461Z,77.94
2022-10-19T01:23:25.442Z,77.22
2022-10-19T01:24:25.447Z,77.47
2022-10-19T01:25:25.439Z,77.56
2022-10-19T01:26:25.442Z,77.87
2022-10-19T01:27:25.434Z,77.47
2022-10-19T01:28:25.421Z,78.08
2022-10-19T01:29:25.381Z,78.28
2022-10-19T01:30:25.380Z,78.17
2022-10-19T01:31:25.387Z,78.62
2022-10-19T01:32:25.364Z,79.23
2022-10-19T01:33:25.344Z,78.89
2022-10-19T01:34:25.336Z,79.19
2022-10-19T01:35:25.347Z,79.19
2022-10-19T01:36:25.310Z,78.99
2022-10-19T01:37:25.374Z,78.89
2022-10-19T01:38:25.310Z,79.80
2022-10-19T01:39:25.271Z,79.19
2022-10-19T01:40:25.258Z,79.39
2022-10-19T01:41:25.262Z,79.43
2022-10-19T01:42:25.240Z,79.53
2022-10-19T01:43:25.228Z,79.70
2022-10-19T01:44:25.222Z,79.19
2022-10-19T01:45:25.205Z,79.23
2022-10-19T01:46:25.202Z,79.84
2022-10-19T01:47:25.287Z,80.00
2022-10-19T01:48:25.184Z,79.94
2022-10-19T01:49:25.338Z,80.45
2022-10-19T01:50:25.160Z,80.15
2022-10-19T01:51:25.163Z,80.55
2022-10-19T01:52:25.136Z,80.45
2022-10-19T01:53:25.148Z,81.46
2022-10-19T01:54:25.129Z,80.85
2022-10-19T01:55:25.105Z,80.96
2022-10-19T01:56:25.087Z,81.06
2022-10-19T01:57:25.087Z,80.76
2022-10-19T01:58:25.080Z,80.35
2022-10-19T01:59:25.093Z,80.04
2022-10-19T02:00:25.048Z,80.04
2022-10-19T02:01:25.036Z,80.24
2022-10-19T02:02:25.040Z,80.38
2022-10-19T02:03:25.030Z,79.94
2022-10-19T02:04:25.253Z,80.04
2022-10-19T02:05:24.998Z,80.29
2022-10-19T02:06:24.979Z,80.49
2022-10-19T02:07:24.974Z,80.29
2022-10-19T02:08:24.961Z,81.37
2022-10-19T02:09:24.971Z,81.06
2022-10-19T02:10:24.947Z,81.06
2022-10-19T02:11:24.954Z,81.02
2022-10-19T02:12:24.915Z,80.82
2022-10-19T02:13:24.924Z,80.35
2022-10-19T02:14:24.920Z,80.45
2022-10-19T02:15:24.913Z,80.35
2022-10-19T02:16:24.875Z,79.94
2022-10-19T02:17:24.873Z,80.45
2022-10-19T02:18:24.851Z,80.35
2022-10-19T02:19:24.869Z,80.55
2022-10-19T02:20:25.692Z,80.45
2022-10-19T02:21:24.820Z,80.45
2022-10-19T02:22:24.817Z,80.51
2022-10-19T02:23:24.797Z,79.90
2022-10-19T02:24:24.804Z,80.00
2022-10-19T02:25:24.784Z,80.00
2022-10-19T02:26:24.778Z,80.31
2022-10-19T02:27:24.758Z,80.41
2022-10-19T02:29:24.743Z,79.80
2022-10-19T02:30:24.735Z,80.51
2022-10-19T02:31:24.711Z,80.00
2022-10-19T02:32:24.714Z,80.00
2022-10-19T02:33:24.696Z,79.90
2022-10-19T02:34:24.705Z,79.90
2022-10-19T02:35:24.688Z,80.62
2022-10-19T02:36:24.663Z,80.21
2022-10-19T02:37:25.572Z,80.21
2022-10-19T02:38:24.659Z,80.07
2022-10-19T02:39:24.630Z,79.39
2022-10-19T02:40:24.621Z,79.90
2022-10-19T02:41:24.635Z,79.39
2022-10-19T02:42:24.600Z,79.39
2022-10-19T02:43:24.579Z,80.21
2022-10-19T02:44:24.601Z,79.90
2022-10-19T02:45:24.568Z,79.80
2022-10-19T02:46:24.596Z,79.80
2022-10-19T02:47:24.558Z,79.90
2022-10-19T02:48:24.534Z,80.31
2022-10-19T02:49:24.516Z,80.11
2022-10-19T02:50:24.535Z,80.51
2022-10-19T02:51:24.509Z,79.29
2022-10-19T02:52:24.491Z,79.29
2022-10-19T02:53:24.483Z,79.97
2022-10-19T02:54:24.472Z,80.41
2022-10-19T02:55:24.503Z,80.17
2022-10-19T02:56:24.439Z,80.11
2022-10-19T02:57:24.428Z,80.11
2022-10-19T02:58:24.423Z,79.09
2022-10-19T02:59:24.413Z,79.39
2022-10-19T03:00:24.441Z,79.39
2022-10-19T03:01:24.394Z,79.90
2022-10-19T03:02:24.382Z,80.21
2022-10-19T03:03:24.363Z,79.60
2022-10-19T03:04:24.366Z,79.29
2022-10-19T03:05:24.348Z,79.60
2022-10-19T03:06:24.345Z,79.50
2022-10-19T03:07:24.338Z,79.60
2022-10-19T03:08:24.348Z,79.19
2022-10-19T03:09:24.313Z,79.50
2022-10-19T03:10:24.299Z,80.11
2022-10-19T03:11:24.279Z,80.51
2022-10-19T03:12:24.272Z,80.41
2022-10-19T03:13:24.265Z,80.31
2022-10-19T03:14:24.267Z,80.31
2022-10-19T03:15:24.240Z,80.51
2022-10-19T03:16:24.271Z,80.41
2022-10-19T03:17:24.216Z,80.41
2022-10-19T03:18:24.211Z,79.90
2022-10-19T03:19:24.198Z,79.80
2022-10-19T03:20:24.181Z,79.90
2022-10-19T03:21:24.174Z,79.66
2022-10-19T03:22:24.170Z,80.07
2022-10-19T03:23:24.171Z,79.90
2022-10-19T03:24:24.141Z,79.97
2022-10-19T03:25:24.140Z,80.37
2022-10-19T03:26:24.115Z,79.36
2022-10-19T03:27:24.106Z,79.56
2022-10-19T03:28:24.094Z,79.46
2022-10-19T03:29:24.104Z,79.66
2022-10-19T03:30:24.107Z,79.56
2022-10-19T03:31:24.064Z,79.46
2022-10-19T03:32:24.051Z,79.25
2022-10-19T03:34:24.037Z,79.46
2022-10-19T03:35:24.038Z,79.36
2022-10-19T03:36:24.015Z,79.56
2022-10-19T03:37:24.005Z,79.97
2022-10-19T03:38:23.995Z,79.56
2022-10-19T03:39:23.993Z,79.25
2022-10-19T03:40:23.972Z,79.46
2022-10-19T03:41:23.975Z,79.77
2022-10-19T03:42:23.952Z,79.66
2022-10-19T03:43:23.940Z,79.56
2022-10-19T03:44:23.933Z,79.66
2022-10-19T03:45:23.911Z,79.32
2022-10-19T03:46:23.899Z,79.36
2022-10-19T03:47:23.898Z,79.25
2022-10-19T03:48:23.890Z,79.36
2022-10-19T03:49:23.867Z,79.86
2022-10-19T03:50:23.855Z,78.95
2022-10-19T03:51:23.875Z,79.86
2022-10-19T03:52:23.835Z,79.46
2022-10-19T03:53:23.828Z,79.25
2022-10-19T03:54:27.238Z,79.77
2022-10-19T03:55:23.826Z,79.56
2022-10-19T03:56:23.806Z,79.86
2022-10-19T03:57:23.782Z,79.16
2022-10-19T03:58:23.790Z,79.56
2022-10-19T03:59:23.758Z,78.95
2022-10-19T04:00:23.757Z,78.95
2022-10-19T04:01:23.841Z,79.16
2022-10-19T04:02:23.754Z,78.95
2022-10-19T04:03:23.792Z,78.85
2022-10-19T04:04:23.703Z,79.16
2022-10-19T04:05:23.709Z,77.22
2022-10-19T04:06:23.695Z,77.73
2022-10-19T04:07:23.695Z,77.73
2022-10-19T04:08:23.675Z,78.34
2022-10-19T04:09:23.822Z,78.55
2022-10-19T04:10:23.649Z,78.64
2022-10-19T04:11:23.652Z,78.24
2022-10-19T04:12:23.619Z,78.14
2022-10-19T04:13:23.609Z,77.73
2022-10-19T04:14:32.695Z,77.73
2022-10-19T04:15:24.610Z,77.83
2022-10-19T04:16:23.583Z,77.83
2022-10-19T04:17:24.085Z,77.53
2022-10-19T04:18:23.562Z,77.22
2022-10-19T04:19:23.555Z,77.12
2022-10-19T04:20:23.544Z,77.12
2022-10-19T04:21:23.530Z,77.12
2022-10-19T04:22:23.511Z,76.92
2022-10-19T04:23:23.533Z,76.82
2022-10-19T04:24:23.489Z,76.61
2022-10-19T04:25:23.476Z,76.61
2022-10-19T04:26:23.504Z,76.72
2022-10-19T04:27:23.516Z,76.01
2022-10-19T04:28:23.697Z,76.10
2022-10-19T04:29:26.450Z,76.41
2022-10-19T04:30:24.584Z,76.72
2022-10-19T04:31:23.498Z,76.10
2022-10-19T04:32:23.439Z,74.58
2022-10-19T04:33:23.411Z,75.19
2022-10-19T04:34:23.382Z,75.60
2022-10-19T04:35:23.365Z,75.70
2022-10-19T04:36:23.391Z,75.09
2022-10-19T04:37:23.350Z,75.33
2022-10-19T04:38:23.344Z,75.40
2022-10-19T04:39:23.349Z,75.60
2022-10-19T04:40:23.323Z,75.29
2022-10-19T04:41:23.304Z,75.60
2022-10-19T04:42:23.331Z,75.40
2022-10-19T04:43:23.326Z,75.40
2022-10-19T04:45:23.261Z,75.60
2022-10-19T04:46:23.316Z,75.49
2022-10-19T04:47:23.251Z,75.40
2022-10-19T04:48:23.231Z,75.49
2022-10-19T04:49:23.219Z,75.56
2022-10-19T04:50:23.217Z,74.95
2022-10-19T04:51:23.197Z,74.88
2022-10-19T04:52:23.225Z,75.60
2022-10-19T04:54:23.178Z,75.29
2022-10-19T04:55:23.162Z,74.99
2022-10-19T04:56:23.154Z,75.26
2022-10-19T04:57:23.139Z,74.99
2022-10-19T04:58:23.166Z,74.88
2022-10-19T04:59:23.129Z,74.85
2022-10-19T05:00:23.108Z,75.09
2022-10-19T05:01:23.204Z,74.95
2022-10-19T05:02:23.086Z,75.09
2022-10-19T05:03:23.075Z,75.09
2022-10-19T05:04:23.087Z,74.99
2022-10-19T05:05:23.053Z,75.19
2022-10-19T05:06:23.038Z,74.99
2022-10-19T05:07:23.034Z,74.99
2022-10-19T05:08:23.020Z,74.85
2022-10-19T05:09:23.021Z,74.95
2022-10-19T05:10:22.989Z,73.67
2022-10-19T05:11:23.026Z,73.97
2022-10-19T05:12:22.982Z,74.79
2022-10-19T05:13:22.972Z,74.79
2022-10-19T05:14:23.022Z,74.99
2022-10-19T05:15:22.959Z,75.09
2022-10-19T05:16:22.953Z,75.19
2022-10-19T05:17:22.923Z,75.29
2022-10-19T05:18:22.938Z,75.09
2022-10-19T05:19:22.903Z,75.40
2022-10-19T05:20:22.910Z,74.99
2022-10-19T05:21:22.872Z,74.88
2022-10-19T05:22:22.871Z,74.99
2022-10-19T05:23:22.904Z,74.88
2022-10-19T05:24:22.861Z,74.99
2022-10-19T05:25:22.834Z,75.70
2022-10-19T05:26:22.835Z,75.60
2022-10-19T05:27:22.806Z,75.49
2022-10-19T05:28:22.805Z,75.90
2022-10-19T05:29:22.822Z,75.80
2022-10-19T05:30:22.808Z,76.10
2022-10-19T05:31:22.780Z,76.61
2022-10-19T05:32:22.760Z,76.82
2022-10-19T05:33:22.749Z,76.21
2022-10-19T05:34:22.728Z,78.34
2022-10-19T05:35:22.925Z,78.55
2022-10-19T05:36:22.707Z,79.36
2022-10-19T05:37:22.705Z,79.77
2022-10-19T05:38:22.688Z,79.77
2022-10-19T05:39:22.684Z,79.86
2022-10-19T05:40:22.663Z,79.97
2022-10-19T05:41:22.705Z,80.17
2022-10-19T05:42:22.653Z,79.83
2022-10-19T05:43:22.639Z,79.36
2022-10-19T05:44:22.632Z,79.16
2022-10-19T05:45:22.619Z,78.55
2022-10-19T05:46:22.606Z,77.53
2022-10-19T05:47:24.336Z,77.83
2022-10-19T05:48:22.591Z,77.94
2022-10-19T05:49:22.567Z,77.22
2022-10-19T05:50:22.571Z,77.94
2022-10-19T05:51:22.578Z,77.87
2022-10-19T05:52:22.541Z,77.87
2022-10-19T05:53:22.555Z,77.77
2022-10-19T05:54:25.009Z,77.26
2022-10-19T05:55:22.503Z,77.36
2022-10-19T05:56:22.496Z,77.67
2022-10-19T05:57:22.517Z,77.77
2022-10-19T05:58:22.479Z,78.48
2022-10-19T05:59:22.470Z,78.68
2022-10-19T06:00:22.457Z,79.19
2022-10-19T06:01:22.439Z,78.68
2022-10-19T06:02:22.431Z,78.17
2022-10-19T06:03:22.475Z,78.89
2022-10-19T06:04:22.425Z,78.28
2022-10-19T06:05:22.403Z,78.28
2022-10-19T06:06:22.385Z,78.58
2022-10-19T06:07:22.382Z,78.68
2022-10-19T06:08:22.414Z,78.64
2022-10-19T06:09:22.383Z,78.78
2022-10-19T06:10:22.355Z,78.64
2022-10-19T06:11:22.338Z,78.78
2022-10-19T06:12:24.927Z,78.34
2022-10-19T06:13:22.368Z,78.55
2022-10-19T06:14:22.329Z,78.64
2022-10-19T06:15:22.301Z,78.34
2022-10-19T06:16:22.285Z,78.64
2022-10-19T06:17:22.379Z,78.34
2022-10-19T06:18:22.257Z,78.34
2022-10-19T06:19:22.299Z,77.33
2022-10-19T06:20:22.243Z,78.04
2022-10-19T06:21:22.229Z,77.94
2022-10-19T06:22:22.214Z,77.53
2022-10-19T06:23:22.214Z,76.82
2022-10-19T06:24:22.211Z,77.53
2022-10-19T06:25:22.182Z,77.63
2022-10-19T06:26:22.189Z,77.02
2022-10-19T06:27:22.192Z,77.83
2022-10-19T06:28:22.155Z,77.43
2022-10-19T06:29:22.164Z,77.22
2022-10-19T06:30:22.192Z,76.82
2022-10-19T06:31:22.122Z,77.43
2022-10-19T06:32:22.113Z,77.33
2022-10-19T06:33:22.128Z,77.63
2022-10-19T06:34:22.154Z,77.73
2022-10-19T06:35:22.103Z,77.43
2022-10-19T06:36:22.153Z,77.43
2022-10-19T06:37:22.055Z,77.53
2022-10-19T06:38:22.066Z,78.04
2022-10-19T06:39:22.037Z,78.04
2022-10-19T06:40:22.792Z,77.73
2022-10-19T06:41:22.126Z,77.73
2022-10-19T06:42:21.995Z,77.83
2022-10-19T06:43:22.795Z,77.63
2022-10-19T06:44:21.987Z,77.83
2022-10-19T06:45:21.965Z,78.04
2022-10-19T06:46:22.871Z,78.24
2022-10-19T06:47:21.949Z,78.34
2022-10-19T06:48:22.815Z,77.94
2022-10-19T06:49:21.929Z,78.24
2022-10-19T06:50:21.910Z,78.75
2022-10-19T06:51:22.813Z,78.64
2022-10-19T06:52:21.918Z,79.05
2022-10-19T06:53:21.885Z,78.64
2022-10-19T06:54:21.869Z,78.34
2022-10-19T06:55:21.856Z,77.83
2022-10-19T06:56:21.854Z,77.83
2022-10-19T06:57:21.867Z,78.24
2022-10-19T06:58:21.838Z,79.36
2022-10-19T06:59:22.748Z,79.86
2022-10-19T07:00:21.806Z,79.66
2022-10-19T07:01:22.022Z,79.56
2022-10-19T07:02:21.789Z,79.22
2022-10-19T07:03:22.781Z,79.36
2022-10-19T07:04:21.758Z,79.36
2022-10-19T07:05:21.758Z,78.24
2022-10-19T07:06:21.739Z,78.24
2022-10-19T07:07:21.752Z,78.64
2022-10-19T07:08:21.755Z,78.95
2022-10-19T07:09:21.703Z,78.95
2022-10-19T07:10:21.713Z,78.55
2022-10-19T07:11:21.695Z,78.95
2022-10-19T07:12:21.670Z,79.46
2022-10-19T07:13:21.710Z,79.56
2022-10-19T07:14:24.817Z,78.44
2022-10-19T07:15:21.648Z,78.34
2022-10-19T07:16:22.307Z,78.95
2022-10-19T07:17:21.625Z,79.46
2022-10-19T07:18:22.253Z,79.25
2022-10-19T07:19:21.625Z,79.36
2022-10-19T07:20:21.623Z,78.85
2022-10-19T07:21:21.580Z,78.61
2022-10-19T07:22:27.243Z,78.10
2022-10-19T07:23:21.573Z,78.51
2022-10-19T07:24:21.552Z,77.90
2022-10-19T07:25:21.535Z,78.81
2022-10-19T07:26:21.574Z,78.71
2022-10-19T07:27:21.561Z,78.51
2022-10-19T07:28:21.595Z,78.06
2022-10-19T07:29:21.532Z,78.17
2022-10-19T07:30:21.868Z,77.66
2022-10-19T07:31:21.721Z,77.25
2022-10-19T07:32:21.546Z,77.45
2022-10-19T07:33:21.462Z,77.12
2022-10-19T07:34:24.235Z,76.91
2022-10-19T07:35:22.483Z,77.45
2022-10-19T07:36:21.423Z,77.12
2022-10-19T07:37:21.413Z,77.42
2022-10-19T07:38:21.406Z,77.32
2022-10-19T07:39:21.499Z,76.87
2022-10-19T07:40:21.375Z,76.78
2022-10-19T07:41:21.401Z,76.37
2022-10-19T07:43:21.340Z,76.84
2022-10-19T07:44:21.327Z,75.82
2022-10-19T07:45:21.321Z,75.93
2022-10-19T07:46:21.330Z,74.91
2022-10-19T07:47:21.300Z,74.91
2022-10-19T07:48:21.282Z,75.01
2022-10-19T07:49:21.273Z,75.49
2022-10-19T07:50:21.265Z,75.01
2022-10-19T07:51:21.290Z,74.68
2022-10-19T07:52:21.344Z,74.81
2022-10-19T07:53:21.230Z,74.98
2022-10-19T07:54:21.223Z,74.44
2022-10-19T07:55:21.233Z,74.33
2022-10-19T07:56:21.237Z,73.73
2022-10-19T07:57:21.194Z,73.83
2022-10-19T07:58:21.184Z,73.83
2022-10-19T07:59:21.184Z,73.63
2022-10-19T08:00:21.164Z,73.43
2022-10-19T08:01:21.153Z,73.49
2022-10-19T08:02:21.901Z,73.43
2022-10-19T08:05:22.171Z,72.92
2022-10-19T08:06:21.091Z,73.02
2022-10-19T08:07:21.108Z,73.02
2022-10-19T08:08:21.080Z,73.02
2022-10-19T08:09:51.086Z,72.72
2022-10-19T08:10:22.099Z,73.32
2022-10-19T08:11:21.061Z,73.32
2022-10-19T08:12:21.054Z,73.43
2022-10-19T08:13:21.025Z,73.63
2022-10-19T08:14:21.015Z,73.83
2022-10-19T08:15:20.994Z,73.83
2022-10-19T08:16:20.983Z,73.63
2022-10-19T08:17:20.985Z,73.46
2022-10-19T08:18:21.007Z,73.76
2022-10-19T08:19:20.957Z,74.48
2022-10-19T08:20:20.953Z,74.88
2022-10-19T08:21:20.929Z,75.38
2022-10-19T08:22:20.926Z,75.69
2022-10-19T08:23:20.941Z,76.33
2022-10-19T08:24:20.905Z,76.43
2022-10-19T08:25:20.906Z,76.74
2022-10-19T08:26:20.881Z,76.84
2022-10-19T08:27:20.886Z,76.84
2022-10-19T08:28:20.859Z,76.94
2022-10-19T08:29:20.852Z,76.64
2022-10-19T08:30:20.939Z,76.74
2022-10-19T08:31:20.831Z,76.43
2022-10-19T08:32:20.824Z,76.43
2022-10-19T08:33:20.801Z,75.93
2022-10-19T08:34:20.793Z,75.73
2022-10-19T08:35:20.780Z,75.93
2022-10-19T08:36:20.784Z,75.38
2022-10-19T08:37:40.165Z,75.38
2022-10-19T08:38:21.747Z,75.18
2022-10-19T08:39:20.744Z,75.28
2022-10-19T08:40:20.827Z,75.28
2022-10-19T08:41:20.734Z,74.98
2022-10-19T08:42:20.714Z,74.88
2022-10-19T08:43:20.725Z,74.77
2022-10-19T08:44:20.695Z,74.68
2022-10-19T08:45:20.675Z,74.68
2022-10-19T08:46:20.712Z,74.57
2022-10-19T08:47:30.766Z,74.88
2022-10-19T08:48:21.649Z,74.24
2022-10-19T08:49:20.630Z,73.93
2022-10-19T08:50:20.743Z,73.83
2022-10-19T08:51:20.604Z,73.53
2022-10-19T08:52:20.861Z,73.63
2022-10-19T08:53:20.628Z,73.53
2022-10-19T08:54:20.574Z,73.02
2022-10-19T08:55:20.810Z,73.12
2022-10-19T08:56:38.931Z,73.09
2022-10-19T08:57:21.563Z,72.17
2022-10-19T08:58:20.544Z,72.17
2022-10-19T08:59:20.543Z,72.88
2022-10-19T09:00:20.582Z,72.68
2022-10-19T09:01:20.506Z,72.58
2022-10-19T09:02:20.485Z,71.88
2022-10-19T09:03:31.848Z,71.97
2022-10-19T09:04:21.466Z,71.97
2022-10-19T09:05:20.453Z,71.88
2022-10-19T09:06:20.467Z,71.37
2022-10-19T09:07:20.430Z,71.03
2022-10-19T09:08:20.431Z,71.00
2022-10-19T09:09:20.432Z,70.46
2022-10-19T09:10:20.528Z,70.32
2022-10-19T09:11:20.388Z,70.02
2022-10-19T09:12:20.388Z,69.38
2022-10-19T09:13:20.374Z,68.64
2022-10-19T09:14:20.382Z,68.87
2022-10-19T09:15:20.369Z,69.28
2022-10-19T09:16:20.342Z,68.77
2022-10-19T09:17:20.334Z,68.17
2022-10-19T09:18:20.314Z,68.60
2022-10-19T09:19:20.303Z,69.01
2022-10-19T09:20:20.312Z,69.42
2022-10-19T09:21:20.284Z,69.31
2022-10-19T09:22:20.269Z,69.92
2022-10-19T09:23:20.263Z,69.65
2022-10-19T09:24:20.266Z,69.92
2022-10-19T09:25:20.257Z,69.01
2022-10-19T09:26:20.268Z,69.62
2022-10-19T09:27:20.227Z,69.62
2022-10-19T09:28:20.226Z,69.71
2022-10-19T09:29:20.196Z,69.42
2022-10-19T09:30:20.209Z,70.05
2022-10-19T09:31:20.192Z,69.85
2022-10-19T09:32:20.182Z,70.05
2022-10-19T09:33:20.170Z,70.46
2022-10-19T09:34:20.139Z,70.36
2022-10-19T09:35:20.136Z,69.95
2022-10-19T09:36:22.732Z,70.09
2022-10-19T09:37:26.004Z,70.18
2022-10-19T09:38:21.112Z,70.32
2022-10-19T09:39:20.098Z,70.32
2022-10-19T09:40:20.074Z,71.23
2022-10-19T09:41:20.060Z,71.13
2022-10-19T09:42:20.049Z,71.26
2022-10-19T09:43:20.070Z,71.44
2022-10-19T09:44:20.030Z,71.57
2022-10-19T09:45:20.024Z,71.26
2022-10-19T09:46:20.609Z,71.13
2022-10-19T09:47:20.036Z,71.03
2022-10-19T09:48:19.990Z,71.30
2022-10-19T09:49:19.996Z,71.09
2022-10-19T09:50:19.978Z,71.37
2022-10-19T09:51:19.967Z,69.85
2022-10-19T09:52:19.958Z,70.25
2022-10-19T09:53:19.934Z,70.96
2022-10-19T09:54:19.924Z,70.66
2022-10-19T09:55:19.934Z,70.25
2022-10-19T09:56:19.915Z,69.95
2022-10-19T09:57:19.887Z,70.15
2022-10-19T09:58:19.887Z,70.15
2022-10-19T09:59:19.891Z,69.51
2022-10-19T10:00:19.860Z,69.11
2022-10-19T10:01:19.858Z,69.42
2022-10-19T10:02:19.835Z,69.31
2022-10-19T10:03:19.854Z,68.67
2022-10-19T10:04:19.825Z,68.47
2022-10-19T10:05:19.816Z,67.97
2022-10-19T10:06:19.830Z,68.57
2022-10-19T10:07:19.792Z,68.67
2022-10-19T10:08:19.811Z,68.17
2022-10-19T10:09:19.769Z,67.86
2022-10-19T10:10:19.757Z,67.26
2022-10-19T10:11:19.740Z,67.29
2022-10-19T10:12:19.748Z,67.60
2022-10-19T10:13:19.714Z,67.09
2022-10-19T10:14:19.724Z,67.49
2022-10-19T10:15:19.703Z,67.39
2022-10-19T10:16:19.732Z,66.69
2022-10-19T10:17:19.673Z,66.89
2022-10-19T10:18:19.684Z,66.89
2022-10-19T10:19:22.235Z,66.89
2022-10-19T10:20:19.646Z,67.69
2022-10-19T10:21:25.186Z,67.49
2022-10-19T10:22:20.871Z,66.18
2022-10-19T10:23:19.611Z,66.15
2022-10-19T10:24:19.601Z,65.95
2022-10-19T10:25:19.593Z,66.25
2022-10-19T10:26:19.581Z,66.42
2022-10-19T10:27:19.587Z,64.37
2022-10-19T10:28:19.572Z,63.23
2022-10-19T10:29:19.543Z,63.23
2022-10-19T10:30:19.537Z,63.03
2022-10-19T10:31:19.549Z,63.03
2022-10-19T10:32:19.523Z,62.12
2022-10-19T10:33:33.339Z,62.63
2022-10-19T10:34:28.270Z,61.92
2022-10-19T10:35:20.517Z,62.05
2022-10-19T10:36:19.493Z,63.16
2022-10-19T10:37:19.462Z,62.35
2022-10-19T10:38:19.458Z,61.77
2022-10-19T10:39:19.450Z,62.88
2022-10-19T10:40:23.246Z,63.09
2022-10-19T10:41:19.414Z,61.47
2022-10-19T10:42:19.405Z,61.37
2022-10-19T10:43:19.392Z,60.87
2022-10-19T10:44:19.400Z,61.77
2022-10-19T10:45:19.367Z,62.48
2022-10-19T10:46:19.367Z,62.59
2022-10-19T10:47:19.349Z,62.59
2022-10-19T10:48:19.360Z,62.31
2022-10-19T10:49:19.340Z,61.71
2022-10-19T10:50:19.575Z,61.91
2022-10-19T10:51:19.352Z,61.10
2022-10-19T10:52:19.469Z,61.00
2022-10-19T10:53:19.286Z,60.97
2022-10-19T10:54:19.282Z,61.27
2022-10-19T10:55:19.284Z,60.87
2022-10-19T10:56:19.255Z,60.33
2022-10-19T10:57:19.493Z,59.83
2022-10-19T10:58:20.385Z,60.53
2022-10-19T10:59:19.934Z,60.53
2022-10-19T11:00:19.522Z,59.70
2022-10-19T11:01:19.249Z,59.90
2022-10-19T11:02:19.253Z,60.00
2022-10-19T11:03:19.184Z,58.49
2022-10-19T11:04:19.174Z,58.39
2022-10-19T11:05:19.165Z,58.80
2022-10-19T11:06:19.208Z,57.68
2022-10-19T11:07:19.164Z,57.58
2022-10-19T11:08:19.162Z,57.10
2022-10-19T11:09:19.146Z,58.22
2022-10-19T11:10:19.110Z,57.51
2022-10-19T11:11:19.121Z,58.72
2022-10-19T11:12:19.088Z,58.65
2022-10-19T11:13:19.078Z,58.34
2022-10-19T11:14:19.088Z,59.66
2022-10-19T11:15:19.158Z,58.65
2022-10-19T11:16:19.046Z,58.22
2022-10-19T11:17:22.348Z,58.01
2022-10-19T11:18:19.023Z,58.52
2022-10-19T11:19:19.013Z,57.48
2022-10-19T11:20:19.004Z,58.36
2022-10-19T11:21:18.986Z,56.42
2022-10-19T11:22:22.289Z,56.12
2022-10-19T11:23:19.987Z,55.31
2022-10-19T11:24:18.996Z,55.31
2022-10-19T11:25:18.956Z,55.24
2022-10-19T11:26:18.938Z,54.94
2022-10-19T11:27:18.937Z,56.15
2022-10-19T11:28:18.953Z,56.75
2022-10-19T11:29:18.900Z,57.05
2022-10-19T11:30:18.887Z,56.12
2022-10-19T11:31:18.881Z,55.91
2022-10-19T11:32:18.881Z,56.75
2022-10-19T11:33:18.860Z,56.45
2022-10-19T11:34:21.234Z,57.05
2022-10-19T11:35:18.832Z,56.95
2022-10-19T11:36:18.837Z,56.85
2022-10-19T11:37:18.811Z,57.68
2022-10-19T11:38:21.830Z,56.88
2022-10-19T11:39:18.819Z,57.89
2022-10-19T11:40:22.160Z,57.89
2022-10-19T11:41:19.391Z,57.98
2022-10-19T11:42:18.769Z,57.28
2022-10-19T11:43:19.684Z,57.51
2022-10-19T11:44:18.773Z,58.72
2022-10-19T11:45:18.742Z,58.52
2022-10-19T11:46:18.740Z,58.62
2022-10-19T11:47:18.712Z,57.43
2022-10-19T11:48:18.698Z,58.04
2022-10-19T11:49:18.684Z,59.15
2022-10-19T11:50:18.674Z,59.56
2022-10-19T11:51:21.850Z,59.35
2022-10-19T11:52:18.666Z,59.42
2022-10-19T11:53:18.640Z,59.35
2022-10-19T11:54:18.632Z,59.53
2022-10-19T11:55:18.770Z,58.12
2022-10-19T11:56:18.625Z,58.19
2022-10-19T11:57:18.616Z,58.67
2022-10-19T11:58:18.592Z,57.56
2022-10-19T11:59:18.575Z,57.76
2022-10-19T12:00:37.543Z,58.59
2022-10-19T12:01:19.550Z,58.16
2022-10-19T12:02:18.723Z,57.76
2022-10-19T12:03:18.548Z,57.28
2022-10-19T12:04:18.520Z,58.69
2022-10-19T12:05:18.535Z,58.69
2022-10-19T12:06:18.502Z,57.51
2022-10-19T12:07:18.494Z,56.70
2022-10-19T12:09:18.508Z,58.72
2022-10-19T12:10:18.458Z,58.62
2022-10-19T12:11:18.469Z,58.12
2022-10-19T12:12:18.457Z,58.12
2022-10-19T12:13:18.419Z,59.12
2022-10-19T12:14:18.417Z,59.42
2022-10-19T12:15:18.422Z,58.85
2022-10-19T12:16:18.397Z,58.75
2022-10-19T12:17:18.389Z,58.65
2022-10-19T12:18:18.383Z,58.32
2022-10-19T12:19:18.364Z,58.62
2022-10-19T12:20:19.860Z,59.02
2022-10-19T12:21:18.340Z,59.02
2022-10-19T12:22:18.342Z,58.92
2022-10-19T12:23:18.324Z,58.65
2022-10-19T12:24:18.310Z,59.15
2022-10-19T12:25:18.294Z,59.56
2022-10-19T12:27:18.296Z,59.76
2022-10-19T12:28:18.289Z,60.77
2022-10-19T12:29:18.246Z,60.36
2022-10-19T12:30:18.241Z,59.76
2022-10-19T12:31:18.239Z,59.89
2022-10-19T12:32:18.218Z,59.69
2022-10-19T12:33:18.209Z,59.69
2022-10-19T12:34:18.246Z,59.58
2022-10-19T12:36:18.180Z,59.69
2022-10-19T12:37:18.171Z,59.91
2022-10-19T12:38:18.152Z,59.38
2022-10-19T12:39:18.157Z,60.19
2022-10-19T12:40:18.130Z,60.12
2022-10-19T12:41:18.131Z,60.02
2022-10-19T12:42:18.107Z,59.81
2022-10-19T12:43:18.142Z,59.51
2022-10-19T12:44:18.182Z,60.02
2022-10-19T12:45:18.138Z,59.91
2022-10-19T12:46:18.076Z,59.81
2022-10-19T12:47:18.056Z,60.09
2022-10-19T12:48:18.045Z,59.35
2022-10-19T12:49:18.073Z,59.45
2022-10-19T12:50:18.068Z,59.56
2022-10-19T12:51:18.031Z,59.66
2022-10-19T12:52:18.005Z,58.95
2022-10-19T12:53:18.064Z,57.71
2022-10-19T12:54:17.992Z,57.41
2022-10-19T12:55:17.994Z,57.18
2022-10-19T12:56:18.001Z,56.68
2022-10-19T12:57:22.673Z,56.35
2022-10-19T12:58:18.953Z,55.84
2022-10-19T12:59:17.942Z,55.41
2022-10-19T13:00:17.932Z,55.11
2022-10-19T13:01:17.931Z,55.41
2022-10-19T13:02:17.907Z,55.91